Time;durP1;ratioP1;P1;durP2;ratioP2;P2;SDS_P1;SDS_P2;PMS_P1;PMS_P2;Temp;Humidity;BMP_temperature;BMP_pressure;BME280_temperature;BME280_humidity;BME280_pressure;Samples;Min_cycle;Max_cycle;Signal;HPM_P1;HPM_P2
2022/07/11 00:01:43;;;;;;;7.17;2.20;;;11.60;1.00;;;;;;4994388;28;20188;-52
2022/07/11 00:04:09;;;;;;;3.33;2.30;;;11.70;1.00;;;;;;4994526;28;20234;-52
2022/07/11 00:06:35;;;;;;;5.77;2.70;;;11.70;1.00;;;;;;4993453;28;20215;-51
2022/07/11 00:09:00;;;;;;;4.23;2.07;;;11.70;1.00;;;;;;4987855;28;20667;-52
2022/07/11 00:11:26;;;;;;;15.40;2.93;;;11.60;1.00;;;;;;4994398;28;20191;-52
2022/07/11 00:13:52;;;;;;;5.80;1.90;;;11.60;1.00;;;;;;4994198;28;20534;-51
2022/07/11 00:16:17;;;;;;;9.83;2.40;;;11.60;1.00;;;;;;4994322;28;20522;-52
2022/07/11 00:18:44;;;;;;;5.03;2.07;;;11.60;1.00;;;;;;4993445;28;20267;-51
2022/07/11 00:21:10;;;;;;;7.10;1.90;;;11.50;1.00;;;;;;4993933;28;20156;-52
2022/07/11 00:23:36;;;;;;;8.33;2.20;;;11.50;1.00;;;;;;4994014;28;20485;-52
2022/07/11 00:26:02;;;;;;;6.43;2.30;;;11.50;1.00;;;;;;4994039;28;20485;-52
2022/07/11 00:28:28;;;;;;;6.03;1.83;;;11.50;1.00;;;;;;4993174;28;20985;-52
2022/07/11 00:30:54;;;;;;;3.53;1.73;;;11.40;1.00;;;;;;4993963;28;20173;-52
2022/07/11 00:33:20;;;;;;;9.50;2.83;;;11.40;1.00;;;;;;4992881;28;20490;-52
2022/07/11 00:35:46;;;;;;;5.20;2.00;;;11.40;1.00;;;;;;4993778;28;20446;-52
2022/07/11 00:38:11;;;;;;;7.63;2.10;;;11.30;1.00;;;;;;4990094;28;20189;-48
2022/07/11 00:40:37;;;;;;;3.70;2.00;;;11.30;1.00;;;;;;4993277;28;20169;-49
2022/07/11 00:43:04;;;;;;;2.90;1.77;;;11.30;1.00;;;;;;4991446;28;20199;-49
2022/07/11 00:45:29;;;;;;;10.03;4.00;;;11.30;1.00;;;;;;4979024;28;20225;-49
2022/07/11 00:47:56;;;;;;;11.07;2.80;;;11.20;1.00;;;;;;4991332;28;20933;-50
2022/07/11 00:50:23;;;;;;;7.30;2.67;;;11.20;18.90;;;;;;4992330;28;20180;-52
2022/07/11 00:52:50;;;;;;;10.60;4.40;;;11.20;12.70;;;;;;4993514;28;20900;-51
2022/07/11 00:55:16;;;;;;;2.10;1.90;;;11.20;23.40;;;;;;4993539;28;20475;-51
2022/07/11 00:57:42;;;;;;;5.17;1.70;;;11.20;91.40;;;;;;4992344;28;20494;-51
2022/07/11 01:00:09;;;;;;;4.70;2.13;;;11.20;99.90;;;;;;4991586;28;20196;-51
2022/07/11 01:02:35;;;;;;;6.37;1.90;;;11.30;99.90;;;;;;4991263;28;20559;-51
2022/07/11 01:05:01;;;;;;;8.10;2.00;;;11.30;99.90;;;;;;4975457;28;20549;-51
2022/07/11 01:07:26;;;;;;;6.13;2.33;;;11.40;99.90;;;;;;4979223;28;20692;-51
2022/07/11 01:09:52;;;;;;;6.83;2.13;;;11.30;99.90;;;;;;4991151;28;20215;-51
2022/07/11 01:12:18;;;;;;;2.80;1.67;;;11.30;99.90;;;;;;4991658;28;20181;-51
2022/07/11 01:14:54;;;;;;;3.50;2.00;;;11.30;99.90;;;;;;4991882;28;20180;-51
2022/07/11 01:17:20;;;;;;;8.50;2.17;;;11.30;99.90;;;;;;4991201;28;20187;-51
2022/07/11 01:19:46;;;;;;;3.10;2.20;;;11.30;99.90;;;;;;4990886;28;20914;-51
2022/07/11 01:22:14;;;;;;;2.73;2.30;;;11.20;99.90;;;;;;4989993;28;20467;-50
2022/07/11 01:24:40;;;;;;;6.57;2.10;;;11.20;99.90;;;;;;4986519;28;20234;-51
2022/07/11 01:27:07;;;;;;;3.63;2.20;;;11.20;99.90;;;;;;4988440;28;20474;-51
2022/07/11 01:29:33;;;;;;;4.87;2.23;;;11.20;99.90;;;;;;4988563;28;20478;-51
2022/07/11 01:31:58;;;;;;;4.83;2.30;;;11.20;99.90;;;;;;4991243;28;20440;-50
2022/07/11 01:34:24;;;;;;;8.33;2.57;;;11.20;1.00;;;;;;4991701;28;20184;-50
2022/07/11 01:36:49;;;;;;;11.93;2.80;;;11.10;1.00;;;;;;4987003;28;20193;-51
2022/07/11 01:39:15;;;;;;;10.87;2.80;;;11.10;1.00;;;;;;4979990;28;20556;-51
2022/07/11 01:41:41;;;;;;;5.87;2.60;;;11.10;84.90;;;;;;4991618;28;20179;-51
2022/07/11 01:44:07;;;;;;;6.90;2.93;;;11.10;99.90;;;;;;4991328;28;20192;-51
2022/07/11 01:46:32;;;;;;;3.23;2.20;;;11.10;1.00;;;;;;4987579;28;20471;-51
2022/07/11 01:48:58;;;;;;;3.43;2.90;;;11.10;1.00;;;;;;4988210;28;20215;-51
2022/07/11 01:51:24;;;;;;;8.23;2.70;;;11.10;1.00;;;;;;4973182;28;20235;-51
2022/07/11 01:53:52;;;;;;;6.53;2.67;;;11.10;1.00;;;;;;4989803;28;20229;-51
2022/07/11 01:56:17;;;;;;;5.40;2.30;;;11.10;1.00;;;;;;4977805;28;20415;-51
2022/07/11 01:58:43;;;;;;;7.40;2.40;;;11.10;1.00;;;;;;4967186;28;20860;-52
2022/07/11 02:01:09;;;;;;;2.87;2.20;;;11.00;99.90;;;;;;4973918;28;20195;-51
2022/07/11 02:03:34;;;;;;;4.73;2.40;;;11.00;99.90;;;;;;4987437;28;20192;-51
2022/07/11 02:06:00;;;;;;;5.03;2.40;;;11.00;1.00;;;;;;4990373;28;21021;-51
2022/07/11 02:08:27;;;;;;;6.40;2.67;;;11.00;99.90;;;;;;4988078;28;20211;-51
2022/07/11 02:10:52;;;;;;;4.30;2.30;;;11.10;1.00;;;;;;4987065;28;20658;-51
2022/07/11 02:13:20;;;;;;;3.73;2.27;;;11.10;99.90;;;;;;4990402;28;20439;-51
2022/07/11 02:15:47;;;;;;;3.87;2.60;;;11.10;1.00;;;;;;4989593;28;20706;-51
2022/07/11 02:18:13;;;;;;;5.70;2.33;;;11.10;1.00;;;;;;4989447;28;20529;-51
2022/07/11 02:20:41;;;;;;;3.40;2.30;;;11.10;1.00;;;;;;4989443;28;20450;-51
2022/07/11 02:23:07;;;;;;;7.63;2.30;;;11.10;1.00;;;;;;4989734;28;20517;-51
2022/07/11 02:25:35;;;;;;;4.00;2.30;;;11.10;1.00;;;;;;4989835;28;20453;-51
2022/07/11 02:28:01;;;;;;;4.63;2.27;;;11.00;1.00;;;;;;4990126;28;20473;-51
2022/07/11 02:30:27;;;;;;;4.73;2.37;;;11.00;1.00;;;;;;4989554;28;20467;-51
2022/07/11 02:32:53;;;;;;;12.33;2.30;;;10.90;99.90;;;;;;4989913;28;20941;-51
2022/07/11 02:35:19;;;;;;;3.57;2.03;;;10.90;1.00;;;;;;4989779;28;20188;-51
2022/07/11 02:37:44;;;;;;;5.60;2.23;;;10.80;1.00;;;;;;4990425;28;20195;-51
2022/07/11 02:40:10;;;;;;;6.77;2.23;;;10.80;99.90;;;;;;4987502;28;20194;-51
2022/07/11 02:42:36;;;;;;;7.70;2.63;;;10.70;99.90;;;;;;4990652;28;20189;-51
2022/07/11 02:45:03;;;;;;;14.43;2.40;;;10.70;1.00;;;;;;4989910;28;20462;-51
2022/07/11 02:47:29;;;;;;;4.30;2.40;;;10.70;1.00;;;;;;4988510;28;20291;-51
2022/07/11 02:49:54;;;;;;;5.13;2.17;;;10.60;21.70;;;;;;4989907;28;20906;-51
2022/07/11 02:52:20;;;;;;;6.57;2.33;;;10.60;14.00;;;;;;4987905;28;20180;-51
2022/07/11 02:54:46;;;;;;;3.43;2.20;;;10.60;9.40;;;;;;4990062;28;20236;-51
2022/07/11 02:57:11;;;;;;;7.03;2.70;;;10.60;8.10;;;;;;4989282;28;20195;-51
2022/07/11 02:59:37;;;;;;;4.20;2.30;;;10.60;56.10;;;;;;4988827;28;20184;-51
2022/07/11 03:02:04;;;;;;;5.93;2.30;;;10.60;99.90;;;;;;4989327;28;21031;-51
2022/07/11 03:04:33;;;;;;;8.30;2.13;;;10.60;99.90;;;;;;4993637;28;20161;-52
2022/07/11 03:06:59;;;;;;;3.03;2.20;;;10.60;99.90;;;;;;4990811;28;20439;-51
2022/07/11 03:09:25;;;;;;;8.33;2.40;;;10.70;99.90;;;;;;4992392;28;20925;-51
2022/07/11 03:11:52;;;;;;;3.10;2.50;;;10.70;99.90;;;;;;4989700;28;20450;-51
2022/07/11 03:14:18;;;;;;;6.07;2.37;;;10.80;99.90;;;;;;4992414;28;20463;-51
2022/07/11 03:16:44;;;;;;;8.03;2.90;;;10.80;99.90;;;;;;4991251;28;20435;-51
2022/07/11 03:19:09;;;;;;;3.27;2.30;;;10.80;99.90;;;;;;4982993;28;20924;-52
2022/07/11 03:21:35;;;;;;;2.90;2.30;;;10.80;99.90;;;;;;4989632;28;20302;-51
2022/07/11 03:24:01;;;;;;;4.13;2.53;;;10.90;99.90;;;;;;4991170;28;20223;-51
2022/07/11 03:26:26;;;;;;;9.87;2.70;;;10.80;99.90;;;;;;4988111;28;20192;-51
2022/07/11 03:28:52;;;;;;;3.17;2.20;;;10.80;97.60;;;;;;4992417;28;20478;-51
2022/07/11 03:31:18;;;;;;;6.37;2.27;;;10.80;84.40;;;;;;4987551;28;20191;-51
2022/07/11 03:33:44;;;;;;;3.43;3.03;;;10.80;75.80;;;;;;4992226;28;20626;-51
2022/07/11 03:36:10;;;;;;;4.73;2.20;;;10.70;86.30;;;;;;4991666;28;20450;-51
2022/07/11 03:38:37;;;;;;;2.70;2.37;;;10.80;94.90;;;;;;4992687;28;20573;-51
2022/07/11 03:41:04;;;;;;;6.30;2.60;;;10.70;95.60;;;;;;4992227;28;20439;-51
2022/07/11 03:43:30;;;;;;;3.37;2.30;;;10.70;72.70;;;;;;4991640;28;20443;-51
2022/07/11 03:45:55;;;;;;;9.90;3.07;;;10.70;42.30;;;;;;4992419;28;20444;-52
2022/07/11 03:48:21;;;;;;;9.40;2.40;;;10.70;77.20;;;;;;4991998;28;20484;-51
2022/07/11 03:50:47;;;;;;;4.47;2.43;;;10.70;92.90;;;;;;4992626;28;20184;-51
2022/07/11 03:53:13;;;;;;;3.10;2.43;;;10.70;99.90;;;;;;4992387;28;20451;-51
2022/07/11 03:55:40;;;;;;;4.10;2.50;;;10.80;99.90;;;;;;4990018;28;20823;-51
2022/07/11 03:58:06;;;;;;;8.27;2.57;;;10.80;99.90;;;;;;4991258;28;20542;-51
2022/07/11 04:00:31;;;;;;;10.07;2.90;;;10.80;99.90;;;;;;4992908;28;20469;-51
2022/07/11 04:02:58;;;;;;;6.40;2.77;;;10.90;99.90;;;;;;4991865;28;20859;-51
2022/07/11 04:05:24;;;;;;;7.20;2.80;;;10.90;99.90;;;;;;4992388;28;20196;-52
2022/07/11 04:07:50;;;;;;;3.70;2.30;;;11.00;99.90;;;;;;4992307;28;20510;-51
2022/07/11 04:10:17;;;;;;;10.43;2.50;;;11.00;99.90;;;;;;4992907;28;21060;-51
2022/07/11 04:12:43;;;;;;;6.43;2.60;;;11.00;97.50;;;;;;4991644;28;20279;-52
2022/07/11 04:15:12;;;;;;;7.23;2.07;;;11.10;28.20;;;;;;4990935;28;20444;-53
2022/07/11 04:17:38;;;;;;;12.80;3.03;;;11.10;47.10;;;;;;4991943;28;20506;-51
2022/07/11 04:20:04;;;;;;;8.73;3.00;;;11.20;50.40;;;;;;4992033;28;20458;-51
2022/07/11 04:22:30;;;;;;;6.47;2.40;;;11.30;34.60;;;;;;4990426;28;20700;-51
2022/07/11 04:24:56;;;;;;;7.57;3.17;;;11.30;5.60;;;;;;4990371;28;20435;-51
2022/07/11 04:27:21;;;;;;;3.50;2.70;;;11.40;1.00;;;;;;4990988;28;20231;-51
2022/07/11 04:29:47;;;;;;;7.70;2.80;;;11.50;99.90;;;;;;4984131;28;20258;-51
2022/07/11 04:32:13;;;;;;;6.03;2.80;;;11.50;1.00;;;;;;4978898;28;20715;-51
2022/07/11 04:34:38;;;;;;;6.07;2.57;;;11.60;1.00;;;;;;4989409;28;20188;-51
2022/07/11 04:37:04;;;;;;;5.00;3.70;;;11.70;1.00;;;;;;4992382;28;20697;-52
2022/07/11 04:39:32;;;;;;;10.87;2.80;;;11.90;1.00;;;;;;4990697;28;20185;-52
2022/07/11 04:41:58;;;;;;;10.07;2.60;;;12.00;1.00;;;;;;4988226;28;20469;-51
2022/07/11 04:44:24;;;;;;;5.57;2.60;;;12.10;1.00;;;;;;4988544;28;20779;-51
2022/07/11 04:46:50;;;;;;;8.47;3.00;;;12.30;99.90;;;;;;4991562;28;20412;-51
2022/07/11 04:49:15;;;;;;;8.30;2.27;;;12.50;99.90;;;;;;4991117;28;20239;-51
2022/07/11 04:51:41;;;;;;;7.10;2.40;;;12.60;1.00;;;;;;4992160;28;20480;-51
2022/07/11 04:54:07;;;;;;;11.07;2.97;;;12.80;1.00;;;;;;4990261;28;20278;-52
2022/07/11 04:56:32;;;;;;;6.17;2.60;;;13.00;99.90;;;;;;4991102;28;20208;-51
2022/07/11 04:58:58;;;;;;;12.07;2.90;;;13.20;99.90;;;;;;4989413;28;20427;-51
2022/07/11 05:01:24;;;;;;;7.83;2.40;;;13.30;1.00;;;;;;4989853;28;20207;-51
2022/07/11 05:03:49;;;;;;;7.03;3.10;;;13.50;1.00;;;;;;4992027;28;20196;-51
2022/07/11 05:06:15;;;;;;;8.37;2.67;;;13.60;1.00;;;;;;4982285;28;20280;-51
2022/07/11 05:08:40;;;;;;;5.13;2.20;;;13.80;1.00;;;;;;4990181;28;20216;-51
2022/07/11 05:11:06;;;;;;;5.37;2.70;;;13.90;99.90;;;;;;4986337;28;20218;-51
2022/07/11 05:13:32;;;;;;;5.73;2.50;;;14.00;99.90;;;;;;4990125;28;20568;-51
2022/07/11 05:15:58;;;;;;;10.27;2.50;;;14.30;99.90;;;;;;4989595;28;20181;-52
2022/07/11 05:18:23;;;;;;;9.00;2.60;;;14.40;99.90;;;;;;4989942;28;20195;-51
2022/07/11 05:20:49;;;;;;;8.40;2.53;;;14.60;99.90;;;;;;4986140;28;20196;-51
2022/07/11 05:23:15;;;;;;;8.90;2.70;;;14.60;99.90;;;;;;4988691;28;20316;-51
2022/07/11 05:25:41;;;;;;;14.80;2.50;;;14.80;99.90;;;;;;4989788;28;20188;-51
2022/07/11 05:28:06;;;;;;;12.73;2.30;;;14.90;99.90;;;;;;4989280;28;20827;-51
2022/07/11 05:30:32;;;;;;;7.40;1.83;;;15.10;99.90;;;;;;4989421;28;20222;-51
2022/07/11 05:32:58;;;;;;;11.43;2.67;;;15.20;99.90;;;;;;4990820;28;20192;-51
2022/07/11 05:35:25;;;;;;;8.40;2.37;;;15.30;99.90;;;;;;4990457;28;20215;-51
2022/07/11 05:37:50;;;;;;;6.60;2.27;;;15.40;99.90;;;;;;4989721;28;20172;-51
2022/07/11 05:40:16;;;;;;;6.67;2.20;;;15.50;99.90;;;;;;4989547;28;20454;-51
2022/07/11 05:42:42;;;;;;;8.57;2.70;;;15.70;99.90;;;;;;4988838;28;20299;-51
2022/07/11 05:45:08;;;;;;;6.33;1.80;;;15.90;99.90;;;;;;4991200;28;20230;-51
2022/07/11 05:47:34;;;;;;;6.97;2.50;;;16.00;99.90;;;;;;4990072;28;20214;-51
2022/07/11 05:49:59;;;;;;;8.70;2.10;;;16.30;99.90;;;;;;4990353;28;20439;-51
2022/07/11 05:52:25;;;;;;;5.10;2.10;;;16.40;99.90;;;;;;4991036;28;20181;-51
2022/07/11 05:54:51;;;;;;;6.43;2.20;;;16.50;99.90;;;;;;4989816;28;20706;-51
2022/07/11 05:57:16;;;;;;;2.63;1.50;;;16.60;99.90;;;;;;4990219;28;20203;-51
2022/07/11 05:59:42;;;;;;;9.00;3.03;;;16.70;99.90;;;;;;4990502;28;20292;-51
2022/07/11 06:02:08;;;;;;;7.37;1.77;;;16.70;99.90;;;;;;4990118;28;20176;-51
2022/07/11 06:04:34;;;;;;;8.40;2.43;;;16.80;99.90;;;;;;4989475;28;20572;-52
2022/07/11 06:07:00;;;;;;;4.53;1.90;;;17.00;99.90;;;;;;4989464;28;20439;-51
2022/07/11 06:09:26;;;;;;;5.77;1.90;;;17.10;99.90;;;;;;4990536;28;20245;-51
2022/07/11 06:11:52;;;;;;;5.30;1.90;;;17.30;99.90;;;;;;4989883;28;20563;-51
2022/07/11 06:14:18;;;;;;;7.80;2.00;;;17.40;99.90;;;;;;4990285;28;20188;-51
2022/07/11 06:16:43;;;;;;;7.67;2.00;;;17.60;99.90;;;;;;4989127;28;20561;-52
2022/07/11 06:19:09;;;;;;;3.53;1.77;;;17.90;99.90;;;;;;4988443;28;20506;-51
2022/07/11 06:21:34;;;;;;;7.47;1.80;;;18.00;99.90;;;;;;4961195;28;20575;-51
2022/07/11 06:24:00;;;;;;;6.37;1.90;;;18.10;99.90;;;;;;4986124;28;20303;-51
2022/07/11 06:26:26;;;;;;;5.30;1.47;;;18.30;99.90;;;;;;4990019;28;20589;-51
2022/07/11 06:28:52;;;;;;;5.03;1.60;;;18.40;99.90;;;;;;4989203;28;20254;-51
2022/07/11 06:31:17;;;;;;;9.20;1.60;;;18.40;99.90;;;;;;4987401;28;20212;-51
2022/07/11 06:33:43;;;;;;;3.47;1.30;;;18.40;99.90;;;;;;5000901;28;20952;-51
2022/07/11 06:36:08;;;;;;;4.60;1.70;;;18.60;99.90;;;;;;4990660;28;20187;-51
2022/07/11 06:38:34;;;;;;;10.00;1.80;;;18.50;99.90;;;;;;4993781;28;20195;-51
2022/07/11 06:41:00;;;;;;;5.30;1.50;;;18.50;99.90;;;;;;4995652;28;20524;-51
2022/07/11 06:43:27;;;;;;;4.27;1.57;;;18.40;99.90;;;;;;4992871;28;20592;-51
2022/07/11 06:45:53;;;;;;;4.10;1.73;;;18.60;99.90;;;;;;4983833;28;20431;-52
2022/07/11 06:48:20;;;;;;;6.47;1.90;;;18.70;99.90;;;;;;4996218;28;20521;-56
2022/07/11 06:50:46;;;;;;;5.70;1.63;;;18.80;99.90;;;;;;4993595;28;20224;-57
2022/07/11 06:53:12;;;;;;;3.27;1.43;;;19.00;99.90;;;;;;4991490;28;20450;-56
2022/07/11 06:55:37;;;;;;;2.73;1.40;;;19.30;99.90;;;;;;4990196;28;20627;-57
2022/07/11 06:58:03;;;;;;;8.10;2.40;;;19.30;99.90;;;;;;4989882;28;20193;-57
2022/07/11 07:00:28;;;;;;;6.70;1.47;;;19.60;99.90;;;;;;4992321;28;20223;-57
2022/07/11 07:02:57;;;;;;;3.83;1.20;;;19.70;99.90;;;;;;4984499;28;20177;-57
2022/07/11 07:05:26;;;;;;;6.30;1.50;;;19.90;99.90;;;;;;4986607;28;20267;-57
2022/07/11 07:07:52;;;;;;;4.00;1.20;;;20.10;99.90;;;;;;4987954;28;20565;-57
2022/07/11 07:10:18;;;;;;;4.87;1.47;;;20.20;99.90;;;;;;4989492;28;20511;-57
2022/07/11 07:12:44;;;;;;;3.53;1.33;;;20.50;99.90;;;;;;4983473;28;20192;-57
2022/07/11 07:15:11;;;;;;;2.93;1.50;;;20.20;99.90;;;;;;4988665;28;20419;-56
2022/07/11 07:17:37;;;;;;;3.70;1.20;;;20.10;99.90;;;;;;4979843;28;20887;-55
2022/07/11 07:20:04;;;;;;;7.00;1.40;;;20.00;99.90;;;;;;4989247;28;20459;-56
2022/07/11 07:22:30;;;;;;;2.17;1.00;;;20.00;99.90;;;;;;4982313;28;20423;-57
2022/07/11 07:24:56;;;;;;;3.73;1.63;;;20.30;99.90;;;;;;4981318;28;20461;-57
2022/07/11 07:27:22;;;;;;;6.80;1.27;;;20.70;99.90;;;;;;4977791;28;20341;-57
2022/07/11 07:29:48;;;;;;;4.80;1.20;;;21.00;99.90;;;;;;4987047;28;20440;-56
2022/07/11 07:32:14;;;;;;;8.67;1.20;;;21.10;99.90;;;;;;4990483;28;20644;-57
2022/07/11 07:34:40;;;;;;;4.07;1.43;;;21.30;99.90;;;;;;4985926;28;20193;-57
2022/07/11 07:37:05;;;;;;;5.23;1.77;;;20.80;99.90;;;;;;4989094;28;20918;-56
2022/07/11 07:39:31;;;;;;;5.17;1.40;;;20.20;99.90;;;;;;4990925;28;20447;-56
2022/07/11 07:41:57;;;;;;;3.30;1.33;;;19.70;99.90;;;;;;4988335;28;20207;-51
2022/07/11 07:44:23;;;;;;;3.00;1.37;;;19.40;99.90;;;;;;4983138;28;20193;-51
2022/07/11 07:46:48;;;;;;;2.30;1.40;;;19.10;99.90;;;;;;4990175;28;20189;-61
2022/07/11 07:49:14;;;;;;;3.67;1.40;;;19.50;99.90;;;;;;4990366;28;20208;-57
2022/07/11 07:51:39;;;;;;;4.40;1.10;;;20.00;99.90;;;;;;4982558;28;20192;-54
2022/07/11 07:54:05;;;;;;;3.60;1.23;;;20.50;99.90;;;;;;4991294;28;20228;-57
2022/07/11 07:56:30;;;;;;;3.00;1.20;;;21.00;99.90;;;;;;4982679;28;20328;-57
2022/07/11 07:58:56;;;;;;;2.10;1.30;;;21.40;99.90;;;;;;4986490;28;20192;-57
2022/07/11 08:01:34;;;;;;;2.70;1.20;;;21.90;99.90;;;;;;4986990;28;20220;-57
2022/07/11 08:04:00;;;;;;;2.93;1.10;;;22.40;99.90;;;;;;4987973;28;20184;-57
2022/07/11 08:06:26;;;;;;;2.60;1.40;;;22.80;99.90;;;;;;4989610;28;20428;-57
2022/07/11 08:08:52;;;;;;;3.80;1.40;;;22.90;99.90;;;;;;4990149;28;20459;-57
2022/07/11 08:11:18;;;;;;;4.43;1.50;;;23.00;99.90;;;;;;4990309;28;20950;-57
2022/07/11 08:13:44;;;;;;;2.90;1.30;;;23.00;99.90;;;;;;4980972;28;20214;-57
2022/07/11 08:16:09;;;;;;;3.13;1.30;;;22.70;99.90;;;;;;4988324;28;20423;-58
2022/07/11 08:18:35;;;;;;;2.57;1.50;;;22.90;99.90;;;;;;4981168;28;20188;-57
2022/07/11 08:21:01;;;;;;;3.53;1.37;;;22.90;99.90;;;;;;4989307;28;20196;-64
2022/07/11 08:23:27;;;;;;;1.00;0.90;;;22.50;99.90;;;;;;4990818;28;20495;-57
2022/07/11 08:25:53;;;;;;;3.20;1.20;;;22.20;99.90;;;;;;4987309;28;20420;-64
2022/07/11 08:28:19;;;;;;;1.10;0.90;;;22.40;99.90;;;;;;4984578;28;20209;-70
2022/07/11 08:30:45;;;;;;;3.93;1.50;;;22.90;99.90;;;;;;4987865;28;20242;-57
2022/07/11 08:33:11;;;;;;;5.17;1.40;;;23.30;99.90;;;;;;4986963;28;20432;-63
2022/07/11 08:35:37;;;;;;;2.40;1.10;;;23.60;99.90;;;;;;4983604;28;21369;-58
2022/07/11 08:38:02;;;;;;;1.27;1.10;;;23.60;99.90;;;;;;4979599;28;20519;-59
2022/07/11 08:40:28;;;;;;;1.60;1.20;;;23.70;99.90;;;;;;4987647;28;20216;-57
2022/07/11 08:42:57;;;;;;;2.57;1.67;;;23.60;99.90;;;;;;4980789;28;20705;-57
2022/07/11 08:45:28;;;;;;;3.73;1.30;;;23.70;99.90;;;;;;4987975;28;20243;-60
2022/07/11 08:47:55;;;;;;;1.90;1.33;;;23.80;99.90;;;;;;4984263;28;20514;-61
2022/07/11 08:50:22;;;;;;;2.33;1.10;;;23.60;99.90;;;;;;4989602;28;20526;-58
2022/07/11 08:52:48;;;;;;;4.20;1.50;;;23.00;99.90;;;;;;4990944;28;20870;-57
2022/07/11 08:55:13;;;;;;;4.30;1.50;;;22.40;99.90;;;;;;4980015;28;20610;-57
2022/07/11 08:57:39;;;;;;;1.87;1.20;;;21.70;99.90;;;;;;4989502;28;20554;-57
2022/07/11 09:00:08;;;;;;;2.70;1.30;;;21.40;99.90;;;;;;4984034;28;20193;-56
2022/07/11 09:02:35;;;;;;;1.80;1.10;;;21.50;99.90;;;;;;4985615;28;20904;-57
2022/07/11 09:05:07;;;;;;;2.40;1.00;;;21.60;99.90;;;;;;4987263;28;20527;-63
2022/07/11 09:07:34;;;;;;;7.43;1.20;;;22.40;99.90;;;;;;4976191;28;20563;-57
2022/07/11 09:10:00;;;;;;;2.60;1.00;;;22.80;99.90;;;;;;4986568;28;20448;-57
2022/07/11 09:12:26;;;;;;;3.50;1.30;;;23.40;99.90;;;;;;4981409;28;21133;-57
2022/07/11 09:14:52;;;;;;;20.43;11.40;;;23.20;99.90;;;;;;4986487;28;20436;-57
2022/07/11 09:17:28;;;;;;;2.97;1.70;;;23.20;99.90;;;;;;4974937;28;20264;-52
2022/07/11 09:19:54;;;;;;;1.97;1.27;;;23.10;99.90;;;;;;4982860;28;20186;-52
2022/07/11 09:25:31;;;;;;;3.13;1.30;;;24.00;99.90;;;;;;4978880;28;20423;-52
2022/07/11 09:28:01;;;;;;;3.33;1.30;;;24.10;99.90;;;;;;4979865;28;20494;-52
2022/07/11 09:30:42;;;;;;;5.77;1.27;;;24.10;99.90;;;;;;4982232;28;20444;-52
2022/07/11 09:33:11;;;;;;;1.33;0.90;;;23.90;99.90;;;;;;4978603;28;20929;-53
2022/07/11 09:35:41;;;;;;;1.63;1.00;;;23.40;99.90;;;;;;4993042;28;20431;-53
2022/07/11 09:38:09;;;;;;;2.27;1.00;;;22.60;99.90;;;;;;4982114;28;20436;-52
2022/07/11 09:40:36;;;;;;;2.80;1.40;;;22.10;99.90;;;;;;4986141;28;20444;-52
2022/07/11 09:43:02;;;;;;;2.57;1.20;;;22.30;99.90;;;;;;4989394;28;20980;-53
2022/07/11 09:45:30;;;;;;;2.50;1.20;;;22.50;99.90;;;;;;4988510;28;20432;-53
2022/07/11 09:48:00;;;;;;;6.03;1.30;;;22.40;99.90;;;;;;4980730;28;20475;-52
2022/07/11 09:50:28;;;;;;;2.70;1.20;;;22.40;99.90;;;;;;4988569;28;20523;-53
2022/07/11 09:53:04;;;;;;;2.17;1.17;;;22.10;99.90;;;;;;4983820;28;20440;-52
2022/07/11 09:55:35;;;;;;;4.07;1.43;;;22.40;99.90;;;;;;4987191;28;20478;-53
2022/07/11 09:58:08;;;;;;;2.63;1.30;;;22.90;99.90;;;;;;4985074;28;20482;-52
2022/07/11 10:00:35;;;;;;;1.23;1.00;;;23.30;99.90;;;;;;4982447;28;20440;-52
2022/07/11 10:03:01;;;;;;;2.67;1.23;;;24.10;99.90;;;;;;4988670;28;20451;-53
2022/07/11 10:05:28;;;;;;;4.60;1.50;;;24.90;99.90;;;;;;4985692;28;20428;-53
2022/07/11 10:07:55;;;;;;;4.00;1.30;;;25.60;99.90;;;;;;4983972;28;20463;-53
2022/07/11 10:10:21;;;;;;;2.17;1.50;;;26.10;99.90;;;;;;4978055;28;20425;-52
2022/07/11 10:12:47;;;;;;;1.67;1.13;;;26.30;99.90;;;;;;4992403;28;20514;-53
2022/07/11 10:15:17;;;;;;;2.40;1.17;;;26.60;99.90;;;;;;4993041;28;20181;-53
2022/07/11 10:17:58;;;;;;;2.47;0.90;;;26.30;99.90;;;;;;4992755;28;20709;-52
2022/07/11 10:20:41;;;;;;;1.40;1.10;;;25.40;99.90;;;;;;4993613;28;20472;-52
2022/07/11 10:23:31;;;;;;;3.07;1.10;;;24.30;99.90;;;;;;4990936;28;20439;-52
2022/07/11 10:26:16;;;;;;;2.10;0.90;;;23.70;99.90;;;;;;4974948;28;21234;-52
2022/07/11 10:29:09;;;;;;;6.60;0.97;;;24.10;99.90;;;;;;4989883;28;20458;-53
2022/07/11 10:31:35;;;;;;;1.93;1.30;;;25.10;99.90;;;;;;4977876;28;20963;-52
2022/07/11 10:34:02;;;;;;;2.40;1.30;;;26.00;99.90;;;;;;4993893;28;20407;-52
2022/07/11 10:36:29;;;;;;;3.43;1.30;;;26.00;99.90;;;;;;4988927;28;20812;-52
2022/07/11 10:39:17;;;;;;;3.13;1.20;;;25.80;99.90;;;;;;4992931;28;20510;-57
2022/07/11 10:41:43;;;;;;;2.43;1.17;;;25.40;99.90;;;;;;4988600;28;20546;-51
2022/07/11 10:44:09;;;;;;;2.60;1.50;;;24.80;99.90;;;;;;4981424;28;20458;-51
2022/07/11 10:46:35;;;;;;;4.90;1.20;;;24.30;99.90;;;;;;4993102;28;20768;-54
2022/07/11 10:49:04;;;;;;;3.30;1.50;;;24.40;99.90;;;;;;4994514;28;20212;-51
2022/07/11 10:51:42;;;;;;;2.60;1.60;;;24.90;99.90;;;;;;4993015;28;20659;-51
2022/07/11 10:54:42;;;;;;;2.00;1.30;;;24.90;99.90;;;;;;4994638;28;20489;-51
2022/07/11 10:57:17;;;;;;;2.70;1.40;;;24.40;99.90;;;;;;4991044;28;20486;-51
2022/07/11 11:00:04;;;;;;;13.87;4.97;;;24.50;99.90;;;;;;4985964;28;21145;-52
2022/07/11 11:02:31;;;;;;;2.17;1.50;;;24.40;99.90;;;;;;4987675;28;20434;-50
2022/07/11 11:04:58;;;;;;;1.63;1.53;;;24.00;99.90;;;;;;4993477;28;20431;-51
2022/07/11 11:07:27;;;;;;;2.13;1.40;;;23.30;99.90;;;;;;4990991;28;20783;-50
2022/07/11 11:09:53;;;;;;;4.47;1.50;;;22.80;99.90;;;;;;4991577;28;20442;-51
2022/07/11 11:12:19;;;;;;;2.50;1.80;;;22.40;99.90;;;;;;4990643;28;20435;-50
2022/07/11 11:14:44;;;;;;;2.40;1.60;;;22.20;99.90;;;;;;4990835;28;20201;-51
2022/07/11 11:17:35;;;;;;;2.13;1.80;;;22.20;99.90;;;;;;4997243;28;20446;-51
2022/07/11 11:20:01;;;;;;;2.20;2.00;;;21.90;99.90;;;;;;4993482;28;20187;-54
2022/07/11 11:22:28;;;;;;;2.40;1.70;;;21.90;99.90;;;;;;4987090;28;20485;-51
2022/07/11 11:24:56;;;;;;;1.83;1.53;;;22.80;99.90;;;;;;4987068;28;20427;-52
2022/07/11 11:27:23;;;;;;;3.07;1.90;;;23.60;99.90;;;;;;4986278;28;20435;-51
2022/07/11 11:29:55;;;;;;;2.23;1.90;;;24.10;99.90;;;;;;4989939;28;20989;-62
2022/07/11 11:32:27;;;;;;;2.43;2.20;;;24.50;99.90;;;;;;4991533;28;20524;-56
2022/07/11 11:34:54;;;;;;;3.10;2.07;;;24.30;99.90;;;;;;4985977;28;20527;-56
2022/07/11 11:37:20;;;;;;;2.40;2.30;;;24.70;99.90;;;;;;4987483;28;20443;-55
2022/07/11 11:39:46;;;;;;;2.43;2.10;;;25.60;99.90;;;;;;4983320;28;20440;-56
2022/07/11 11:42:16;;;;;;;2.73;1.90;;;26.30;99.90;;;;;;4985944;28;20447;-60
2022/07/11 11:44:54;;;;;;;2.83;2.40;;;26.60;99.90;;;;;;4984879;28;20184;-56
2022/07/11 11:47:20;;;;;;;2.20;2.00;;;27.30;99.90;;;;;;4978988;28;20478;-57
2022/07/11 11:49:51;;;;;;;1.90;1.80;;;28.00;99.90;;;;;;4974587;28;20828;-60
2022/07/11 11:52:17;;;;;;;2.00;1.80;;;27.90;99.90;;;;;;4983774;28;20490;-52
2022/07/11 11:54:49;;;;;;;1.87;1.70;;;28.00;99.90;;;;;;4978990;28;20962;-52
2022/07/11 11:57:15;;;;;;;1.83;1.73;;;27.90;99.90;;;;;;4987628;28;20485;-52
2022/07/11 11:59:41;;;;;;;3.87;2.30;;;27.60;99.90;;;;;;4987249;28;20432;-52
2022/07/11 12:02:08;;;;;;;1.47;1.37;;;26.70;99.90;;;;;;4977888;28;20546;-52
2022/07/11 12:04:36;;;;;;;3.40;2.00;;;25.60;99.90;;;;;;4986006;28;20185;-52
2022/07/11 12:07:03;;;;;;;1.90;1.77;;;24.80;99.90;;;;;;4987792;28;20420;-52
2022/07/11 12:09:50;;;;;;;1.80;1.70;;;25.00;99.90;;;;;;4983245;28;20455;-52
2022/07/11 12:12:43;;;;;;;2.80;2.00;;;25.00;99.90;;;;;;4983999;28;20456;-52
2022/07/11 12:15:26;;;;;;;2.20;1.87;;;24.60;99.90;;;;;;4982335;28;20435;-52
2022/07/11 12:17:52;;;;;;;2.60;2.30;;;24.00;99.90;;;;;;4981756;28;20431;-52
2022/07/11 12:20:38;;;;;;;2.27;2.07;;;23.20;99.90;;;;;;4988227;28;20463;-52
2022/07/11 12:23:09;;;;;;;2.30;2.10;;;23.00;99.90;;;;;;4980880;28;20820;-52
2022/07/11 12:25:35;;;;;;;2.27;1.97;;;23.80;99.90;;;;;;4990337;28;20422;-52
2022/07/11 12:28:01;;;;;;;2.67;1.73;;;25.10;99.90;;;;;;4981573;28;20471;-52
2022/07/11 12:30:26;;;;;;;2.37;2.00;;;26.00;99.90;;;;;;4987222;28;20220;-52
2022/07/11 12:33:05;;;;;;;1.60;1.50;;;27.10;99.90;;;;;;4978702;28;20271;-52
2022/07/11 12:35:31;;;;;;;1.63;1.50;;;27.90;99.90;;;;;;4987748;28;20267;-52
2022/07/11 12:37:56;;;;;;;1.50;1.40;;;28.20;99.90;;;;;;4971966;28;20555;-52
2022/07/11 12:40:22;;;;;;;3.63;1.40;;;28.00;99.90;;;;;;4986048;28;20193;-52
2022/07/11 12:42:48;;;;;;;2.17;1.40;;;27.30;99.90;;;;;;4986921;28;20223;-52
2022/07/11 12:45:15;;;;;;;1.43;1.33;;;26.30;99.90;;;;;;4978345;28;20284;-53
2022/07/11 12:47:45;;;;;;;2.30;1.60;;;26.50;99.90;;;;;;4986697;28;20268;-52
2022/07/11 12:50:25;;;;;;;1.37;1.27;;;26.90;99.90;;;;;;4981549;28;20440;-52
2022/07/11 12:52:54;;;;;;;1.57;1.30;;;27.30;99.90;;;;;;4978002;28;20457;-52